createdAt,value
2023-02-16T00:05:02.306Z,159.90
2023-02-16T00:15:19.612Z,220.80
2023-02-16T00:25:21.577Z,141.95
2023-02-16T00:35:23.785Z,141.68
2023-02-16T00:45:26.812Z,152.07
2023-02-16T00:55:32.816Z,157.20
2023-02-16T01:05:34.680Z,168.45
2023-02-16T01:15:36.738Z,154.40
2023-02-16T01:25:39.916Z,158.63
2023-02-16T01:35:42.356Z,155.60
2023-02-16T01:45:48.211Z,169.90
2023-02-16T01:55:57.540Z,185.98
2023-02-16T02:05:59.217Z,201.65
2023-02-16T02:16:01.896Z,145.73
2023-02-16T02:26:42.895Z,152.60
2023-02-16T02:36:55.662Z,140.65
2023-02-16T02:46:59.711Z,139.43
2023-02-16T02:57:38.338Z,145.35
2023-02-16T03:07:49.888Z,158.05
2023-02-16T03:18:16.059Z,159.13
2023-02-16T03:28:41.233Z,164.70
2023-02-16T03:38:49.194Z,175.45
2023-02-16T03:48:52.964Z,144.75
2023-02-16T03:58:54.778Z,166.82
2023-02-16T04:08:56.971Z,153.82
2023-02-16T04:18:59.027Z,151.45
2023-02-16T04:29:01.397Z,152.40
2023-02-16T04:39:07.199Z,160.85
2023-02-16T04:49:08.841Z,150.82
2023-02-16T04:59:10.740Z,150.00
2023-02-16T05:09:13.573Z,190.63
2023-02-16T05:19:15.451Z,163.55
2023-02-16T05:29:20.252Z,172.88
2023-02-16T05:39:22.642Z,240.68
2023-02-16T05:49:27.406Z,250.02
2023-02-16T05:59:41.848Z,319.45
2023-02-16T06:19:47.313Z,251.07
2023-02-16T06:29:51.066Z,280.42
2023-02-16T06:39:52.743Z,237.70
2023-02-16T06:49:54.676Z,209.15
2023-02-16T06:59:56.975Z,189.27
2023-02-16T07:09:59.721Z,161.80
2023-02-16T07:20:01.664Z,153.60
2023-02-16T07:30:03.499Z,163.65
2023-02-16T07:40:06.795Z,171.70
2023-02-16T07:50:09.288Z,117.73
2023-02-16T08:00:11.588Z,130.27
2023-02-16T08:10:13.834Z,134.00
2023-02-16T08:20:15.804Z,131.48
2023-02-16T08:30:18.796Z,166.18
2023-02-16T08:40:26.862Z,147.77
2023-02-16T08:50:29.208Z,124.22
2023-02-16T09:00:38.751Z,115.10
2023-02-16T09:10:46.746Z,96.07
2023-02-16T09:20:48.846Z,93.97
2023-02-16T09:30:51.941Z,102.22
2023-02-16T09:40:53.811Z,109.97
2023-02-16T09:50:56.556Z,89.38
2023-02-16T10:01:09.010Z,99.43
2023-02-16T10:11:39.537Z,82.70
2023-02-16T10:21:48.375Z,105.00
2023-02-16T10:32:15.643Z,87.75
2023-02-16T10:42:50.562Z,85.32
2023-02-16T10:52:58.353Z,71.85
2023-02-16T11:03:03.915Z,88.63
2023-02-16T11:13:09.014Z,91.88
2023-02-16T11:23:36.418Z,85.97
2023-02-16T11:33:41.692Z,58.83
2023-02-16T11:43:46.723Z,52.78
2023-02-16T11:54:01.176Z,58.45
2023-02-16T12:04:40.215Z,63.67
2023-02-16T12:15:12.164Z,78.68
2023-02-16T12:25:27.024Z,73.93
2023-02-16T12:35:54.684Z,86.40
2023-02-16T12:46:05.083Z,81.10
2023-02-16T12:56:18.048Z,80.03
2023-02-16T13:06:57.681Z,79.80
2023-02-16T13:17:14.578Z,82.70
2023-02-16T13:27:37.445Z,59.88
2023-02-16T13:38:15.162Z,68.25
2023-02-16T13:48:36.899Z,73.72
2023-02-16T13:58:40.981Z,63.77
2023-02-16T14:08:44.428Z,62.50
2023-02-16T14:18:56.762Z,63.05
2023-02-16T14:29:18.437Z,62.55
2023-02-16T14:39:27.005Z,82.38
2023-02-16T14:50:29.512Z,80.38
2023-02-16T15:00:58.087Z,85.43
2023-02-16T15:11:13.965Z,95.70
2023-02-16T15:21:22.974Z,83.75
2023-02-16T15:31:34.213Z,84.05
2023-02-16T15:41:39.736Z,72.97
2023-02-16T15:51:58.532Z,75.30
2023-02-16T16:02:09.678Z,74.43
2023-02-16T16:12:17.713Z,87.75
2023-02-16T16:22:36.198Z,102.47
2023-02-16T16:32:40.387Z,97.32
2023-02-16T16:43:10.125Z,84.82
2023-02-16T16:53:44.562Z,79.30
2023-02-16T17:03:52.858Z,79.72
2023-02-16T17:13:57.955Z,87.90
2023-02-16T17:34:46.611Z,94.78
2023-02-16T17:44:51.164Z,81.65
2023-02-16T17:54:55.654Z,109.90
2023-02-16T18:04:58.280Z,114.53
2023-02-16T18:15:06.930Z,93.68
2023-02-16T18:25:11.224Z,102.25
2023-02-16T18:35:19.262Z,88.15
2023-02-16T18:45:22.058Z,99.18
2023-02-16T18:55:34.286Z,110.00
2023-02-16T19:05:38.769Z,110.50
2023-02-16T19:15:43.712Z,96.53
2023-02-16T19:25:49.871Z,89.03
2023-02-16T19:36:10.314Z,81.78
2023-02-16T19:57:04.194Z,110.78
2023-02-16T20:07:07.516Z,92.13
2023-02-16T20:17:10.712Z,95.93
2023-02-16T20:27:17.203Z,116.57
2023-02-16T20:37:26.096Z,110.55
2023-02-16T20:47:37.608Z,96.15
2023-02-16T20:57:44.947Z,105.25
2023-02-16T21:07:49.778Z,89.00
2023-02-16T21:17:57.932Z,100.35
2023-02-16T21:28:01.638Z,115.82
2023-02-16T21:38:06.006Z,121.45
2023-02-16T21:48:31.395Z,97.38
2023-02-16T21:58:35.969Z,143.48
2023-02-16T22:18:40.850Z,93.43
2023-02-16T22:28:45.003Z,112.22
2023-02-16T22:38:53.755Z,106.38
2023-02-16T22:49:02.662Z,94.18
2023-02-16T22:59:04.332Z,115.70
2023-02-16T23:09:18.677Z,98.78
2023-02-16T23:29:26.222Z,113.18
2023-02-16T23:39:28.191Z,123.82
2023-02-16T23:49:29.990Z,91.15
2023-02-16T23:59:31.871Z,91.78
